Moorwatha, Australia

12:03 AM AEDT on November 24, 2017 (GMT +1100)
West Albury | | Change Station

Elev 670 ft 36.07 °S, 146.89 °E | Updated 9 seconds ago

Clear
Clear
69.8 °F
Feels Like 69.8 °F
N
0.0
Wind Variable Wind from NNE
Gusts 0.0 mph

Today
High -- | Low -- °F
--% Chance of Precip.
Yesterday
High -- | Low -- °F
Precip. -- in
Pressure 29.92 in
Visibility 6.2 miles
Clouds Scattered Clouds 12000 ft
Dew Point 55 °F
Humidity 59%
Rainfall 0.00 in
Snow Depth Not available.
5:52 AM 8:07 PM
Waxing Crescent, 21% visible
METAR YWGT 231300Z AUTO 11001KT 9999 // SCT120 18/12 Q1013
Pressure 29.92 in
Visibility 6.2 miles
Clouds Scattered Clouds 12000 ft
Dew Point 55 °F
Humidity 59%
Rainfall 0.00 in
Snow Depth Not available.
5:52 AM 8:07 PM
Waxing Crescent, 21% visible
METAR YWGT 231300Z AUTO 11001KT 9999 // SCT120 18/12 Q1013

Get Severe Weather Alerts

Thanks for signing up!

Be on the lookout for a verification email in your inbox.

You'll start receiving the daily forecast at 6 AM.

×

10-Day Weather Forecast

×

Almanac

Astronomy

Nov. 24, 2017 Rise Set
Actual Time
Civil Twilight
Nautical Twilight
Astronomical Twilight
Moon
Length of Visible Light
Length of Day
Tomorrow will be .
, % of the Moon is Illuminated

Today's Extremes

Country Highs Country Lows

Community

WunderPhotos

Category 6

Welcome to Category 6. This is the collective home for Weather Underground's featured writeups by Dr. Jeff Masters (right), Bob Henson (left), Chris Burt, and other regular contributors.

Nearby

Air Quality

  Air Quality AQ Index Pollutant
Not available.

Snow Depth

Station Depth Elevation

Earthquake Activity

City Distance Mag. Time & Date
Minimum magnitude displayed is 2.5.

Coastal Water Temperatures

Place Temperature

Stations

Nearby Weather Stations

Station Location Temp. Windchill Dew Point Humidity Wind Precip. Elev Updated Type